createdAt,value
2019-01-19T00:00:33.066Z,-2.94
2019-01-19T00:01:28.051Z,-2.97
2019-01-19T00:02:29.603Z,-3.02
2019-01-19T00:03:27.615Z,-3.02
2019-01-19T00:04:26.922Z,-3.05
2019-01-19T00:05:42.110Z,-2.93
2019-01-19T00:06:29.564Z,-3.04
2019-01-19T00:07:26.423Z,-2.97
2019-01-19T00:08:28.118Z,-3.08
2019-01-19T00:09:26.700Z,-3.08
2019-01-19T00:10:28.641Z,-3.08
2019-01-19T00:11:27.059Z,-3.14
2019-01-19T00:12:32.109Z,-3.15
2019-01-19T00:13:43.186Z,-3.20
2019-01-19T00:14:31.607Z,-3.14
2019-01-19T00:15:29.811Z,-3.22
2019-01-19T00:16:29.281Z,-3.20
2019-01-19T00:17:30.108Z,-3.25
2019-01-19T00:18:31.063Z,-3.22
2019-01-19T00:19:28.426Z,-3.20
2019-01-19T00:20:30.606Z,-3.22
2019-01-19T00:21:28.808Z,-3.26
2019-01-19T00:22:32.607Z,-3.18
2019-01-19T00:23:31.105Z,-3.23
2019-01-19T00:24:32.114Z,-3.32
2019-01-19T00:25:31.117Z,-3.28
2019-01-19T00:26:29.581Z,-3.23
2019-01-19T00:27:33.611Z,-3.22
2019-01-19T00:28:31.611Z,-3.28
2019-01-19T00:29:32.277Z,-3.32
2019-01-19T00:30:39.057Z,-3.28
2019-01-19T00:31:34.149Z,-3.18
2019-01-19T00:32:34.107Z,-3.20
2019-01-19T00:33:33.057Z,-3.22
2019-01-19T00:34:34.353Z,-3.26
2019-01-19T00:35:38.609Z,-3.36
2019-01-19T00:36:31.178Z,-3.38
2019-01-19T00:37:31.385Z,-3.32
2019-01-19T00:38:31.494Z,-3.46
2019-01-19T00:39:31.697Z,-3.44
2019-01-19T00:40:34.565Z,-3.33
2019-01-19T00:41:34.564Z,-3.46
2019-01-19T00:42:34.785Z,-3.32
2019-01-19T00:43:34.792Z,-3.39
2019-01-19T00:44:40.100Z,-3.56
2019-01-19T00:45:36.555Z,-3.54
2019-01-19T00:46:34.063Z,-3.51
2019-01-19T00:47:32.916Z,-3.49
2019-01-19T00:48:36.096Z,-3.50
2019-01-19T00:49:33.304Z,-3.57
2019-01-19T00:50:33.716Z,-3.50
2019-01-19T00:51:36.563Z,-3.53
2019-01-19T00:52:36.587Z,-3.53
2019-01-19T00:53:36.499Z,-3.54
2019-01-19T00:54:34.196Z,-3.51
2019-01-19T00:55:36.110Z,-3.67
2019-01-19T00:56:56.181Z,-3.60
2019-01-19T00:57:34.892Z,-3.53
2019-01-19T00:58:50.972Z,-3.51
2019-01-19T00:59:36.848Z,-3.57
2019-01-19T01:00:38.642Z,-3.51
2019-01-19T01:01:36.255Z,-3.46
2019-01-19T01:02:36.338Z,-3.47
2019-01-19T01:03:38.553Z,-3.47
2019-01-19T01:04:39.750Z,-3.35
2019-01-19T01:05:38.554Z,-3.50
2019-01-19T01:06:36.898Z,-3.53
2019-01-19T01:07:36.392Z,-3.50
2019-01-19T01:08:38.115Z,-3.50
2019-01-19T01:09:37.429Z,-3.54
2019-01-19T01:10:41.676Z,-3.51
2019-01-19T01:11:39.556Z,-3.53
2019-01-19T01:12:43.056Z,-3.38
2019-01-19T01:13:40.554Z,-3.46
2019-01-19T01:14:41.102Z,-3.36
2019-01-19T01:15:40.095Z,-3.35
2019-01-19T01:16:45.977Z,-3.35
2019-01-19T01:17:37.768Z,-3.32
2019-01-19T01:18:39.602Z,-3.44
2019-01-19T01:19:40.103Z,-3.31
2019-01-19T01:20:40.271Z,-3.50
2019-01-19T01:21:41.072Z,-3.46
2019-01-19T01:22:39.692Z,-3.61
2019-01-19T01:23:40.905Z,-3.49
2019-01-19T01:24:46.605Z,-3.44
2019-01-19T01:25:46.607Z,-3.44
2019-01-19T01:26:41.111Z,-3.50
2019-01-19T01:27:39.315Z,-3.50
2019-01-19T01:28:41.964Z,-3.46
2019-01-19T01:29:39.664Z,-3.51
2019-01-19T01:30:39.933Z,-3.50
2019-01-19T01:31:40.073Z,-3.57
2019-01-19T01:32:42.095Z,-3.56
2019-01-19T01:33:40.433Z,-3.60
2019-01-19T01:34:43.029Z,-3.54
2019-01-19T01:35:47.609Z,-3.65
2019-01-19T01:36:47.648Z,-3.56
2019-01-19T01:37:49.561Z,-3.56
2019-01-19T01:38:41.269Z,-3.54
2019-01-19T01:39:45.317Z,-3.64
2019-01-19T01:40:44.916Z,-3.61
2019-01-19T01:41:43.615Z,-3.68
2019-01-19T01:42:44.547Z,-3.78
2019-01-19T01:43:45.080Z,-3.81
2019-01-19T01:44:46.100Z,-3.75
2019-01-19T01:45:46.111Z,-3.72
2019-01-19T01:46:44.599Z,-3.78
2019-01-19T01:48:05.442Z,-3.80
2019-01-19T01:48:42.979Z,-3.72
2019-01-19T01:49:47.638Z,-3.87
2019-01-19T01:50:59.098Z,-3.86
2019-01-19T01:51:43.427Z,-3.93
2019-01-19T01:52:45.603Z,-3.93
2019-01-19T01:54:05.795Z,-3.84
2019-01-19T01:54:45.601Z,-3.91
2019-01-19T01:55:46.703Z,-3.93
2019-01-19T01:56:46.969Z,-3.94
2019-01-19T01:57:46.102Z,-3.89
2019-01-19T01:58:55.853Z,-4.07
2019-01-19T01:59:44.924Z,-4.04
2019-01-19T02:00:46.610Z,-3.99
2019-01-19T02:01:46.061Z,-4.05
2019-01-19T02:02:47.114Z,-4.11
2019-01-19T02:03:49.571Z,-4.05
2019-01-19T02:04:49.548Z,-4.02
2019-01-19T02:06:08.128Z,-4.05
2019-01-19T02:06:47.616Z,-4.18
2019-01-19T02:07:51.143Z,-4.01
2019-01-19T02:08:48.103Z,-4.02
2019-01-19T02:09:50.142Z,-4.05
2019-01-19T02:10:48.063Z,-4.18
2019-01-19T02:11:53.607Z,-4.14
2019-01-19T02:12:50.601Z,-4.12
2019-01-19T02:13:51.097Z,-4.19
2019-01-19T02:14:50.089Z,-4.22
2019-01-19T02:15:49.104Z,-4.14
2019-01-19T02:16:48.549Z,-4.25
2019-01-19T02:17:47.743Z,-4.19
2019-01-19T02:18:49.561Z,-4.26
2019-01-19T02:19:48.033Z,-4.29
2019-01-19T02:20:48.230Z,-4.32
2019-01-19T02:21:49.434Z,-4.22
2019-01-19T02:22:55.612Z,-4.33
2019-01-19T02:23:50.333Z,-4.32
2019-01-19T02:24:51.577Z,-4.36
2019-01-19T02:25:50.196Z,-4.38
2019-01-19T02:26:56.063Z,-4.30
2019-01-19T02:27:53.102Z,-4.38
2019-01-19T02:30:25.170Z,-4.40
2019-01-19T02:31:25.625Z,-4.51
2019-01-19T02:32:30.016Z,-4.55
2019-01-19T02:33:24.213Z,-4.50
2019-01-19T02:34:24.131Z,-4.41
2019-01-19T02:35:38.471Z,-4.47
2019-01-19T02:36:28.623Z,-4.48
2019-01-19T02:37:25.011Z,-4.48
2019-01-19T02:38:30.623Z,-4.57
2019-01-19T02:39:27.914Z,-4.55
2019-01-19T02:40:39.175Z,-4.57
2019-01-19T02:41:25.493Z,-4.58
2019-01-19T02:42:23.700Z,-4.61
2019-01-19T02:43:25.894Z,-4.46
2019-01-19T02:44:27.139Z,-4.48
2019-01-19T02:45:26.172Z,-4.46
2019-01-19T02:46:24.392Z,-4.46
2019-01-19T02:47:28.276Z,-4.44
2019-01-19T02:48:28.669Z,-4.48
2019-01-19T02:49:47.711Z,-4.47
2019-01-19T02:50:47.669Z,-4.43
2019-01-19T02:51:26.686Z,-4.36
2019-01-19T02:52:29.539Z,-4.38
2019-01-19T02:53:25.457Z,-4.47
2019-01-19T02:54:25.560Z,-4.41
2019-01-19T02:55:33.349Z,-4.54
2019-01-19T02:56:30.079Z,-4.40
2019-01-19T02:57:26.096Z,-4.40
2019-01-19T02:58:28.659Z,-4.33
2019-01-19T02:59:27.131Z,-4.44
2019-01-19T03:00:26.606Z,-4.36
2019-01-19T03:01:30.631Z,-4.40
2019-01-19T03:02:29.645Z,-4.43
2019-01-19T03:03:31.048Z,-4.43
2019-01-19T03:04:31.262Z,-4.40
2019-01-19T03:05:27.459Z,-4.44
2019-01-19T03:06:29.623Z,-4.55
2019-01-19T03:07:27.894Z,-4.51
2019-01-19T03:08:28.215Z,-4.68
2019-01-19T03:09:30.183Z,-4.68
2019-01-19T03:10:30.226Z,-4.65
2019-01-19T03:11:28.497Z,-4.69
2019-01-19T03:12:33.657Z,-4.71
2019-01-19T03:13:30.673Z,-4.64
2019-01-19T03:14:28.987Z,-4.66
2019-01-19T03:15:33.170Z,-4.75
2019-01-19T03:16:31.548Z,-4.75
2019-01-19T03:17:31.183Z,-4.79
2019-01-19T03:18:31.676Z,-4.76
2019-01-19T03:19:34.338Z,-4.79
2019-01-19T03:20:30.552Z,-4.65
2019-01-19T03:21:46.167Z,-4.79
2019-01-19T03:22:33.615Z,-4.75
2019-01-19T03:23:33.211Z,-4.79
2019-01-19T03:24:40.121Z,-4.59
2019-01-19T03:25:33.966Z,-4.75
2019-01-19T03:26:31.125Z,-4.62
2019-01-19T03:27:35.219Z,-4.80
2019-01-19T03:28:47.166Z,-4.73
2019-01-19T03:29:33.168Z,-4.75
2019-01-19T03:30:33.728Z,-4.79
2019-01-19T03:31:37.131Z,-4.77
2019-01-19T03:32:32.090Z,-4.82
2019-01-19T03:33:35.132Z,-4.77
2019-01-19T03:34:34.122Z,-4.79
2019-01-19T03:35:34.176Z,-4.69
2019-01-19T03:36:38.123Z,-4.76
2019-01-19T03:37:34.673Z,-4.82
2019-01-19T03:38:33.113Z,-4.79
2019-01-19T03:39:35.203Z,-4.80
2019-01-19T03:40:36.126Z,-4.75
2019-01-19T03:41:35.215Z,-4.82
2019-01-19T03:42:35.669Z,-4.93
2019-01-19T03:43:33.993Z,-4.86
2019-01-19T03:44:34.207Z,-4.71
2019-01-19T03:45:57.760Z,-4.79
2019-01-19T03:46:36.491Z,-4.71
2019-01-19T03:47:42.672Z,-4.77
2019-01-19T03:48:38.128Z,-4.82
2019-01-19T03:49:37.121Z,-4.65
2019-01-19T03:50:39.172Z,-4.82
2019-01-19T03:51:35.485Z,-4.83
2019-01-19T03:52:43.667Z,-4.62
2019-01-19T03:53:35.856Z,-4.77
2019-01-19T03:54:36.062Z,-4.69
2019-01-19T03:55:52.401Z,-4.79
2019-01-19T03:56:39.661Z,-4.66
2019-01-19T03:57:40.174Z,-4.71
2019-01-19T03:58:36.958Z,-4.75
2019-01-19T03:59:38.659Z,-4.73
2019-01-19T04:00:39.327Z,-4.65
2019-01-19T04:01:46.112Z,-4.79
2019-01-19T04:02:39.169Z,-4.59
2019-01-19T04:03:42.727Z,-4.61
2019-01-19T04:04:37.857Z,-4.61
2019-01-19T04:05:39.118Z,-4.64
2019-01-19T04:06:59.087Z,-4.55
2019-01-19T04:07:38.326Z,-4.54
2019-01-19T04:08:40.164Z,-4.65
2019-01-19T04:09:39.628Z,-4.59
2019-01-19T04:10:40.174Z,-4.57
2019-01-19T04:11:40.670Z,-4.64
2019-01-19T04:12:40.537Z,-4.64
2019-01-19T04:13:42.620Z,-4.57
2019-01-19T04:14:40.169Z,-4.51
2019-01-19T04:15:40.632Z,-4.48
2019-01-19T04:16:41.281Z,-4.64
2019-01-19T04:17:43.690Z,-4.58
2019-01-19T04:18:44.169Z,-4.51
2019-01-19T04:19:43.133Z,-4.50
2019-01-19T04:20:40.606Z,-4.57
2019-01-19T04:21:58.135Z,-4.48
2019-01-19T04:22:42.670Z,-4.61
2019-01-19T04:23:41.130Z,-4.62
2019-01-19T04:24:41.326Z,-4.46
2019-01-19T04:25:43.165Z,-4.55
2019-01-19T04:26:45.619Z,-4.59
2019-01-19T04:27:44.022Z,-4.59
2019-01-19T04:28:43.669Z,-4.59
2019-01-19T04:29:42.270Z,-4.51
2019-01-19T04:30:44.626Z,-4.55
2019-01-19T04:31:44.907Z,-4.50
2019-01-19T04:32:42.806Z,-4.68
2019-01-19T04:33:44.724Z,-4.64
2019-01-19T04:34:43.190Z,-4.58
2019-01-19T04:35:45.178Z,-4.59
2019-01-19T04:36:44.798Z,-4.82
2019-01-19T04:37:46.621Z,-4.75
2019-01-19T04:38:44.915Z,-4.65
2019-01-19T04:40:07.634Z,-4.65
2019-01-19T04:40:54.892Z,-4.65
2019-01-19T04:41:46.471Z,-4.75
2019-01-19T04:43:06.335Z,-4.68
2019-01-19T04:43:46.508Z,-4.73
2019-01-19T04:44:53.252Z,-4.77
2019-01-19T04:45:49.659Z,-4.77
2019-01-19T04:46:48.665Z,-4.80
2019-01-19T04:47:46.720Z,-4.87
2019-01-19T04:48:45.805Z,-4.87
2019-01-19T04:49:47.163Z,-4.97
2019-01-19T04:50:45.712Z,-4.71
2019-01-19T04:51:47.702Z,-4.77
2019-01-19T04:52:48.119Z,-4.91
2019-01-19T04:53:46.311Z,-4.83
2019-01-19T04:54:51.121Z,-4.86
2019-01-19T04:55:49.150Z,-4.91
2019-01-19T04:56:48.673Z,-4.95
2019-01-19T04:57:48.715Z,-4.97
2019-01-19T04:58:48.715Z,-4.98
2019-01-19T04:59:47.178Z,-5.00
2019-01-19T05:00:47.629Z,-5.05
2019-01-19T05:01:48.124Z,-5.00
2019-01-19T05:03:05.116Z,-4.95
2019-01-19T05:03:49.677Z,-5.04
2019-01-19T05:04:47.994Z,-4.98
2019-01-19T05:05:56.169Z,-5.01
2019-01-19T05:06:49.619Z,-5.11
2019-01-19T05:07:54.116Z,-5.00
2019-01-19T05:08:51.193Z,-5.07
2019-01-19T05:09:52.671Z,-5.20
2019-01-19T05:10:50.672Z,-5.04
2019-01-19T05:11:52.662Z,-5.03
2019-01-19T05:13:13.641Z,-5.08
2019-01-19T05:13:52.135Z,-5.19
2019-01-19T05:14:50.614Z,-5.20
2019-01-19T05:15:52.669Z,-5.31
2019-01-19T05:16:51.696Z,-5.30
2019-01-19T05:17:51.944Z,-5.31
2019-01-19T05:18:50.084Z,-5.33
2019-01-19T05:19:52.471Z,-5.17
2019-01-19T05:21:13.128Z,-5.16
2019-01-19T05:21:55.510Z,-5.19
2019-01-19T05:22:54.681Z,-5.30
2019-01-19T05:23:53.684Z,-5.33
2019-01-19T05:24:52.653Z,-5.30
2019-01-19T05:25:53.168Z,-5.27
2019-01-19T05:26:51.367Z,-5.27
2019-01-19T05:27:52.626Z,-5.26
2019-01-19T05:28:53.668Z,-5.34
2019-01-19T05:29:59.669Z,-5.11
2019-01-19T05:30:54.118Z,-5.11
2019-01-19T05:31:54.614Z,-5.05
2019-01-19T05:32:54.160Z,-5.08
2019-01-19T05:33:54.167Z,-5.00
2019-01-19T05:34:55.150Z,-5.05
2019-01-19T05:35:54.667Z,-5.20
2019-01-19T05:36:52.855Z,-5.17
2019-01-19T05:37:53.108Z,-5.05
2019-01-19T05:38:55.162Z,-5.11
2019-01-19T05:39:57.937Z,-5.07
2019-01-19T05:40:57.939Z,-5.04
2019-01-19T05:41:56.155Z,-5.08
2019-01-19T05:42:56.008Z,-5.16
2019-01-19T05:43:55.911Z,-5.07
2019-01-19T05:44:56.107Z,-5.12
2019-01-19T05:45:56.163Z,-5.19
2019-01-19T05:46:58.697Z,-5.14
2019-01-19T05:47:55.147Z,-5.19
2019-01-19T05:48:57.614Z,-5.26
2019-01-19T05:49:57.079Z,-5.16
2019-01-19T05:50:55.114Z,-5.19
2019-01-19T05:51:57.161Z,-5.27
2019-01-19T05:53:12.155Z,-5.37
2019-01-19T05:54:01.107Z,-5.35
2019-01-19T05:54:59.614Z,-5.40
2019-01-19T05:55:59.114Z,-5.45
2019-01-19T05:56:57.660Z,-5.51
2019-01-19T05:57:56.102Z,-5.45
2019-01-19T05:58:58.184Z,-5.62
2019-01-19T06:00:00.170Z,-5.67
2019-01-19T06:00:58.621Z,-5.55
2019-01-19T06:02:02.938Z,-5.65
2019-01-19T06:02:56.952Z,-5.72
2019-01-19T06:04:00.455Z,-5.73
2019-01-19T06:05:01.163Z,-5.61
2019-01-19T06:06:13.165Z,-5.67
2019-01-19T06:06:59.203Z,-5.69
2019-01-19T06:07:59.670Z,-5.73
2019-01-19T06:09:05.664Z,-5.63
2019-01-19T06:10:02.616Z,-5.62
2019-01-19T06:11:07.162Z,-5.65
2019-01-19T06:12:05.166Z,-5.54
2019-01-19T06:13:02.461Z,-5.56
2019-01-19T06:14:02.608Z,-5.61
2019-01-19T06:15:00.668Z,-5.62
2019-01-19T06:15:58.987Z,-5.70
2019-01-19T06:16:59.213Z,-5.61
2019-01-19T06:18:01.169Z,-5.54
2019-01-19T06:19:03.159Z,-5.65
2019-01-19T06:20:02.622Z,-5.65
2019-01-19T06:21:03.659Z,-5.65
2019-01-19T06:22:15.664Z,-5.72
2019-01-19T06:23:01.113Z,-5.72
2019-01-19T06:24:03.629Z,-5.65
2019-01-19T06:25:03.619Z,-5.80
2019-01-19T06:26:02.614Z,-5.65
2019-01-19T06:27:00.574Z,-5.76
2019-01-19T06:28:02.683Z,-5.63
2019-01-19T06:29:02.661Z,-5.63
2019-01-19T06:30:02.280Z,-5.70
2019-01-19T06:31:02.585Z,-5.76
2019-01-19T06:32:03.158Z,-5.76
2019-01-19T06:33:17.695Z,-5.72
2019-01-19T06:34:03.663Z,-5.82
2019-01-19T06:35:05.612Z,-5.82
2019-01-19T06:36:04.160Z,-5.82
2019-01-19T06:37:04.417Z,-5.83
2019-01-19T06:38:04.682Z,-5.79
2019-01-19T06:39:02.704Z,-5.95
2019-01-19T06:40:10.665Z,-5.95
2019-01-19T06:41:03.117Z,-6.02
2019-01-19T06:42:03.311Z,-6.02
2019-01-19T06:43:03.589Z,-5.97
2019-01-19T06:44:06.615Z,-5.87
2019-01-19T06:45:05.658Z,-5.95
2019-01-19T06:47:46.223Z,-5.97
2019-01-19T06:48:36.874Z,-6.01
2019-01-19T06:49:39.647Z,-6.06
2019-01-19T06:50:39.211Z,-6.06
2019-01-19T06:51:39.201Z,-5.92
2019-01-19T06:54:14.143Z,-6.01
2019-01-19T06:55:12.091Z,-6.01
2019-01-19T06:56:25.641Z,-6.02
2019-01-19T06:57:18.174Z,-6.00
2019-01-19T06:58:18.141Z,-5.97
2019-01-19T06:59:17.560Z,-5.92
2019-01-19T07:00:18.643Z,-5.94
2019-01-19T07:01:12.643Z,-5.91
2019-01-19T07:02:14.641Z,-5.94
2019-01-19T07:03:28.103Z,-5.80
2019-01-19T07:04:16.603Z,-5.94
2019-01-19T07:05:13.202Z,-5.97
2019-01-19T07:06:13.144Z,-5.95
2019-01-19T07:07:13.380Z,-5.97
2019-01-19T07:08:16.118Z,-6.00
2019-01-19T07:09:13.097Z,-5.98
2019-01-19T07:10:14.146Z,-5.98
2019-01-19T07:11:12.638Z,-6.01
2019-01-19T07:12:16.597Z,-6.05
2019-01-19T07:13:20.690Z,-6.11
2019-01-19T07:14:13.083Z,-5.98
2019-01-19T07:15:15.140Z,-6.08
2019-01-19T07:16:13.457Z,-6.06
2019-01-19T07:17:21.643Z,-6.08
2019-01-19T07:18:15.642Z,-6.00
2019-01-19T07:19:17.641Z,-6.16
2019-01-19T07:20:17.683Z,-6.13
2019-01-19T07:21:17.093Z,-6.24
2019-01-19T07:22:14.462Z,-6.13
2019-01-19T07:23:16.596Z,-6.11
2019-01-19T07:24:15.599Z,-6.06
2019-01-19T07:25:14.812Z,-6.01
2019-01-19T07:26:16.643Z,-6.01
2019-01-19T07:27:15.564Z,-5.92
2019-01-19T07:28:17.138Z,-5.91
2019-01-19T07:29:19.139Z,-5.97
2019-01-19T07:30:17.668Z,-5.87
2019-01-19T07:31:15.878Z,-5.88
2019-01-19T07:32:17.153Z,-5.84
2019-01-19T07:33:16.224Z,-5.80
2019-01-19T07:34:20.147Z,-5.73
2019-01-19T07:35:19.648Z,-5.76
2019-01-19T07:36:17.738Z,-5.69
2019-01-19T07:37:18.594Z,-5.80
2019-01-19T07:38:18.638Z,-5.67
2019-01-19T07:39:17.328Z,-5.67
2019-01-19T07:40:19.141Z,-5.70
2019-01-19T07:43:13.706Z,-5.70
2019-01-19T07:43:53.715Z,-5.77
2019-01-19T07:44:55.112Z,-5.65
2019-01-19T07:45:52.165Z,-5.54
2019-01-19T07:46:56.187Z,-5.59
2019-01-19T07:47:53.665Z,-5.63
2019-01-19T07:48:52.712Z,-5.55
2019-01-19T07:49:54.674Z,-5.55
2019-01-19T07:50:54.216Z,-5.55
2019-01-19T07:51:51.571Z,-5.52
2019-01-19T07:52:53.219Z,-5.59
2019-01-19T07:53:52.671Z,-5.52
2019-01-19T07:54:52.917Z,-5.37
2019-01-19T07:55:54.761Z,-5.35
2019-01-19T07:56:54.369Z,-5.34
2019-01-19T07:57:53.383Z,-5.31
2019-01-19T07:58:55.206Z,-5.26
2019-01-19T07:59:52.649Z,-5.33
2019-01-19T08:00:55.706Z,-5.38
2019-01-19T08:01:56.735Z,-5.23
2019-01-19T08:03:01.705Z,-5.22
2019-01-19T08:03:53.422Z,-5.12
2019-01-19T08:04:55.210Z,-5.12
2019-01-19T08:05:53.803Z,-5.04
2019-01-19T08:06:58.739Z,-4.94
2019-01-19T08:07:57.707Z,-4.94
2019-01-19T08:08:57.279Z,-4.86
2019-01-19T08:09:54.498Z,-4.82
2019-01-19T08:10:56.162Z,-4.66
2019-01-19T08:11:57.701Z,-4.71
2019-01-19T08:12:56.706Z,-4.77
2019-01-19T08:14:02.709Z,-4.87
2019-01-19T08:14:56.325Z,-5.04
2019-01-19T08:16:00.162Z,-4.86
2019-01-19T08:16:59.661Z,-4.80
2019-01-19T08:17:56.670Z,-4.77
2019-01-19T08:18:57.709Z,-4.76
2019-01-19T08:20:01.668Z,-4.68
2019-01-19T08:21:03.214Z,-4.62
2019-01-19T08:21:56.401Z,-4.41
2019-01-19T08:23:00.216Z,-4.37
2019-01-19T08:24:00.665Z,-4.26
2019-01-19T08:25:00.714Z,-4.15
2019-01-19T08:25:58.745Z,-3.99
2019-01-19T08:27:13.253Z,-3.91
2019-01-19T08:27:57.501Z,-3.81
2019-01-19T08:29:05.208Z,-3.67
2019-01-19T08:30:00.667Z,-3.61
2019-01-19T08:31:01.153Z,-3.61
2019-01-19T08:31:58.665Z,-3.60
2019-01-19T08:32:59.707Z,-3.49
2019-01-19T08:33:58.371Z,-3.47
2019-01-19T08:34:58.499Z,-3.56
2019-01-19T08:36:06.927Z,-3.50
2019-01-19T08:36:59.668Z,-3.46
2019-01-19T08:38:20.007Z,-3.32
2019-01-19T08:39:00.713Z,-3.23
2019-01-19T08:40:08.161Z,-3.31
2019-01-19T08:41:20.619Z,-3.18
2019-01-19T08:42:00.685Z,-3.31
2019-01-19T08:43:22.013Z,-3.38
2019-01-19T08:44:01.708Z,-3.32
2019-01-19T08:45:02.217Z,-3.05
2019-01-19T08:46:03.196Z,-2.82
2019-01-19T08:47:01.661Z,-2.56
2019-01-19T08:48:04.210Z,-2.47
2019-01-19T08:49:24.527Z,-2.21
2019-01-19T08:50:05.205Z,-1.96
2019-01-19T08:51:02.341Z,-1.80
2019-01-19T08:52:05.236Z,-1.99
2019-01-19T08:53:05.208Z,-1.93
2019-01-19T08:54:03.749Z,-2.21
2019-01-19T08:55:02.119Z,-2.05
2019-01-19T08:56:05.702Z,-2.13
2019-01-19T08:57:05.194Z,-2.08
2019-01-19T08:58:04.212Z,-1.99
2019-01-19T08:59:04.707Z,-1.80
2019-01-19T09:00:04.707Z,-1.54
2019-01-19T09:01:04.708Z,-1.45
2019-01-19T09:02:25.160Z,-1.09
2019-01-19T09:03:11.218Z,-0.97
2019-01-19T09:04:19.222Z,-1.07
2019-01-19T09:05:04.636Z,-0.99
2019-01-19T09:06:07.710Z,-0.97
2019-01-19T09:07:04.047Z,-0.95
2019-01-19T09:08:06.226Z,-0.99
2019-01-19T09:09:06.216Z,-1.02
2019-01-19T09:10:05.207Z,-0.94
2019-01-19T09:11:06.706Z,-0.99
2019-01-19T09:12:05.018Z,-0.87
2019-01-19T09:13:05.100Z,-1.07
2019-01-19T09:14:12.216Z,-1.17
2019-01-19T09:15:06.447Z,-1.27
2019-01-19T09:16:09.206Z,-1.27
2019-01-19T09:17:05.785Z,-1.33
2019-01-19T09:18:06.708Z,-1.30
2019-01-19T09:19:07.708Z,-1.38
2019-01-19T09:20:07.288Z,-1.24
2019-01-19T09:21:08.228Z,-1.31
2019-01-19T09:22:08.206Z,-1.90
2019-01-19T09:23:09.698Z,-2.13
2019-01-19T09:24:09.722Z,-2.02
2019-01-19T09:25:08.178Z,-2.11
2019-01-19T09:26:11.218Z,-2.06
2019-01-19T09:27:09.207Z,-2.43
2019-01-19T09:28:09.250Z,-2.05
2019-01-19T09:29:13.245Z,-1.75
2019-01-19T09:30:11.702Z,-1.60
2019-01-19T09:31:08.842Z,-1.78
2019-01-19T09:32:24.210Z,-1.77
2019-01-19T09:33:10.183Z,-1.70
2019-01-19T09:34:08.683Z,-1.39
2019-01-19T09:35:30.889Z,-1.39
2019-01-19T09:36:08.950Z,-1.38
2019-01-19T09:37:09.253Z,-0.97
2019-01-19T09:38:13.204Z,-0.45
2019-01-19T09:39:11.208Z,0.03
2019-01-19T09:40:11.137Z,0.48
2019-01-19T09:41:10.666Z,1.03
2019-01-19T09:42:11.711Z,1.44
2019-01-19T09:43:10.161Z,1.97
2019-01-19T09:44:10.368Z,2.55
2019-01-19T09:45:12.215Z,2.87
2019-01-19T09:46:12.715Z,3.30
2019-01-19T09:47:11.927Z,3.23
2019-01-19T09:48:12.707Z,3.36
2019-01-19T09:49:13.215Z,3.72
2019-01-19T09:50:11.415Z,4.03
2019-01-19T09:51:13.205Z,4.12
2019-01-19T09:52:11.804Z,4.62
2019-01-19T09:53:12.010Z,4.51
2019-01-19T09:54:12.213Z,4.43
2019-01-19T09:55:14.207Z,3.98
2019-01-19T09:56:12.537Z,4.10
2019-01-19T09:57:12.750Z,3.52
2019-01-19T09:58:12.956Z,3.09
2019-01-19T09:59:13.162Z,2.73
2019-01-19T10:00:15.211Z,2.77
2019-01-19T10:01:13.537Z,3.15
2019-01-19T10:02:13.753Z,2.49
2019-01-19T10:03:14.021Z,2.46
2019-01-19T10:04:14.164Z,2.84
2019-01-19T10:05:14.362Z,3.21
2019-01-19T10:06:16.264Z,3.72
2019-01-19T10:07:14.790Z,3.71
2019-01-19T10:08:14.995Z,3.60
2019-01-19T10:09:15.215Z,3.25
2019-01-19T10:10:17.210Z,2.92
2019-01-19T10:11:15.540Z,2.73
2019-01-19T10:12:15.753Z,3.12
2019-01-19T10:13:17.711Z,3.24
2019-01-19T10:14:19.816Z,3.43
2019-01-19T10:15:16.403Z,3.57
2019-01-19T10:16:16.607Z,3.85
2019-01-19T10:17:16.859Z,4.18
2019-01-19T10:18:17.070Z,4.50
2019-01-19T10:19:17.280Z,4.55
2019-01-19T10:20:19.235Z,4.61
2019-01-19T10:21:17.698Z,4.40
2019-01-19T10:22:17.909Z,4.25
2019-01-19T10:23:18.132Z,4.46
2019-01-19T10:24:20.208Z,4.47
2019-01-19T10:25:20.214Z,4.64
2019-01-19T10:26:18.681Z,4.32
2019-01-19T10:27:18.882Z,4.24
2019-01-19T10:28:19.103Z,3.83
2019-01-19T10:29:19.316Z,3.58
2019-01-19T10:30:19.525Z,3.46
2019-01-19T10:31:19.744Z,3.83
2019-01-19T10:32:19.954Z,3.46
2019-01-19T10:33:20.167Z,3.65
2019-01-19T10:34:20.400Z,3.96
2019-01-19T10:35:20.611Z,3.76
2019-01-19T10:36:20.829Z,4.15
2019-01-19T10:37:22.714Z,3.86
2019-01-19T10:38:21.195Z,3.70
2019-01-19T10:39:21.418Z,4.03
2019-01-19T10:40:21.616Z,4.01
2019-01-19T10:41:21.824Z,3.64
2019-01-19T10:42:22.057Z,3.98
2019-01-19T10:43:25.216Z,3.72
2019-01-19T10:44:22.430Z,3.80
2019-01-19T10:45:22.637Z,3.50
2019-01-19T10:46:22.866Z,3.72
2019-01-19T10:47:34.901Z,4.14
2019-01-19T10:48:23.226Z,4.34
2019-01-19T10:49:25.320Z,4.79
2019-01-19T10:50:23.594Z,4.46
2019-01-19T10:51:26.721Z,4.73
2019-01-19T10:52:25.285Z,4.70
2019-01-19T10:53:25.739Z,4.75
2019-01-19T10:54:24.690Z,4.26
2019-01-19T10:55:27.267Z,3.86
2019-01-19T10:56:24.872Z,3.88
2019-01-19T10:57:25.015Z,4.34
2019-01-19T10:58:25.993Z,4.64
2019-01-19T10:59:27.503Z,4.42
2019-01-19T11:00:27.221Z,4.72
2019-01-19T11:01:25.680Z,4.28
2019-01-19T11:02:27.712Z,3.94
2019-01-19T11:03:30.900Z,4.33
2019-01-19T11:04:29.619Z,4.62
2019-01-19T11:05:28.464Z,4.88
2019-01-19T11:06:32.668Z,4.98
2019-01-19T11:07:26.915Z,5.45
2019-01-19T11:08:27.309Z,5.37
2019-01-19T11:09:27.296Z,5.48
2019-01-19T11:10:33.060Z,5.95
2019-01-19T11:11:29.264Z,5.86
2019-01-19T11:12:29.375Z,5.91
2019-01-19T11:13:29.880Z,5.98
2019-01-19T11:14:29.219Z,5.71
2019-01-19T11:15:28.291Z,5.60
2019-01-19T11:16:28.529Z,5.55
2019-01-19T11:17:30.722Z,5.38
2019-01-19T11:18:28.943Z,5.12
2019-01-19T11:19:29.604Z,5.28
2019-01-19T11:20:31.211Z,5.46
2019-01-19T11:21:31.216Z,5.82
2019-01-19T11:22:30.910Z,5.30
2019-01-19T11:23:39.786Z,4.95
2019-01-19T11:24:30.769Z,4.91
2019-01-19T11:25:30.255Z,4.43
2019-01-19T11:26:30.458Z,4.43
2019-01-19T11:27:32.213Z,4.39
2019-01-19T11:28:32.729Z,3.82
2019-01-19T11:29:32.718Z,3.67
2019-01-19T11:30:32.741Z,3.28
2019-01-19T11:31:31.193Z,2.81
2019-01-19T11:32:31.409Z,2.59
2019-01-19T11:33:33.214Z,2.95
2019-01-19T11:34:31.813Z,3.10
2019-01-19T11:35:35.717Z,3.36
2019-01-19T11:36:32.172Z,3.28
2019-01-19T11:37:32.386Z,3.52
2019-01-19T11:38:32.605Z,3.62
2019-01-19T11:39:36.714Z,3.67
2019-01-19T11:40:34.760Z,3.70
2019-01-19T11:41:33.199Z,3.79
2019-01-19T11:42:33.430Z,3.80
2019-01-19T11:43:33.639Z,3.72
2019-01-19T11:44:33.869Z,3.67
2019-01-19T11:45:34.114Z,3.85
2019-01-19T11:46:34.197Z,4.15
2019-01-19T11:47:34.412Z,4.15
2019-01-19T11:48:34.628Z,4.19
2019-01-19T11:49:34.848Z,4.26
2019-01-19T11:50:35.056Z,4.34
2019-01-19T11:51:35.271Z,4.07
2019-01-19T11:52:35.481Z,4.03
2019-01-19T11:53:35.718Z,4.04
2019-01-19T11:54:35.930Z,4.07
2019-01-19T11:55:36.143Z,4.34
2019-01-19T11:56:36.363Z,4.29
2019-01-19T11:57:37.576Z,4.42
2019-01-19T11:58:38.714Z,4.61
2019-01-19T11:59:36.923Z,4.58
2019-01-19T12:00:37.133Z,4.73
2019-01-19T12:01:37.340Z,4.99
2019-01-19T12:02:37.594Z,5.14
2019-01-19T12:03:37.785Z,5.43
2019-01-19T12:04:41.720Z,5.67
2019-01-19T12:05:39.735Z,5.86
2019-01-19T12:06:40.227Z,5.75
2019-01-19T12:07:38.454Z,5.74
2019-01-19T12:08:40.261Z,5.75
2019-01-19T12:09:38.871Z,5.75
2019-01-19T12:10:42.716Z,5.64
2019-01-19T12:11:41.238Z,6.01
2019-01-19T12:12:42.218Z,6.44
2019-01-19T12:13:41.236Z,6.44
2019-01-19T12:14:41.716Z,6.25
2019-01-19T12:15:41.724Z,6.40
2019-01-19T12:16:42.173Z,6.69
2019-01-19T12:17:42.219Z,6.69
2019-01-19T12:18:40.549Z,6.47
2019-01-19T12:19:40.765Z,6.69
2019-01-19T12:20:44.194Z,6.53
2019-01-19T12:21:41.217Z,6.91
2019-01-19T12:22:41.325Z,7.40
2019-01-19T12:23:49.220Z,7.07
2019-01-19T12:24:42.396Z,6.95
2019-01-19T12:25:43.718Z,7.09
2019-01-19T12:26:43.727Z,7.19
2019-01-19T12:27:43.749Z,7.38
2019-01-19T12:28:49.225Z,7.84
2019-01-19T12:29:42.551Z,7.20
2019-01-19T12:30:44.672Z,7.59
2019-01-19T12:31:42.896Z,7.35
2019-01-19T12:32:43.165Z,7.23
2019-01-19T12:33:48.225Z,7.53
2019-01-19T12:34:44.229Z,8.11
2019-01-19T12:35:46.674Z,8.07
2019-01-19T12:36:43.915Z,8.11
2019-01-19T12:37:45.731Z,7.90
2019-01-19T12:38:47.228Z,7.44
2019-01-19T12:39:46.800Z,7.55
2019-01-19T12:40:53.672Z,6.83
2019-01-19T12:41:46.722Z,6.94
2019-01-19T12:42:46.719Z,7.09
2019-01-19T12:43:46.234Z,7.01
2019-01-19T12:44:49.501Z,6.90
2019-01-19T12:45:47.701Z,7.34
2019-01-19T12:46:48.263Z,7.24
2019-01-19T12:47:49.752Z,7.05
2019-01-19T12:49:08.981Z,7.55
2019-01-19T12:49:46.275Z,7.82
2019-01-19T12:50:46.486Z,7.85
2019-01-19T12:51:46.706Z,7.50
2019-01-19T12:52:46.919Z,6.97
2019-01-19T12:53:47.162Z,6.90
2019-01-19T12:55:10.237Z,6.29
2019-01-19T12:55:51.258Z,6.43
2019-01-19T12:56:54.290Z,6.56
2019-01-19T12:57:49.722Z,6.40
2019-01-19T12:58:49.723Z,6.44
2019-01-19T12:59:48.182Z,6.36
2019-01-19T13:00:48.347Z,6.19
2019-01-19T13:01:50.258Z,6.51
2019-01-19T13:02:50.226Z,6.84
2019-01-19T13:03:48.860Z,6.84
2019-01-19T13:04:50.722Z,6.81
2019-01-19T13:05:51.715Z,6.62
2019-01-19T13:06:51.177Z,6.59
2019-01-19T13:07:51.239Z,6.76